Accueil
METAR-TAF:

METAR-TAF

Aéroports :

Ankara Esenboğa, Turquie

Aéroport international Esenboğa

latitude: 40-07N, longitude: 032-59E, altitude: 953 m

Observation

Le bulletin a été fait il y a 31 minutes, à 12:20 UTC
Vent 2 kt de direction variable
Température 21°C
Humidité 25%
Pression 1023 hPa
Visibilité 10 km ou plus
pas de nuages en-dessous de 1500 mètres et pas de cumulonimbus.

METAR: LTAC 181220Z VRB02KT CAVOK 21/00 Q1023 NOSIG RMK RWY21L 22005KT 170V270 RWY03L VRB03KT RWY21R 23005KT 170V310

Heure: 15:51 (12:51 UTC)

Prévision

Le bulletin a été fait il y a 2 heures et 11 minutes, à 10:40 UTC
Prévision valable du 18 à 12 UTC au 19 à 12 UTC
Vent 2 kt de direction variable
Visibilité 10 km ou plus
pas de nuages en-dessous de 1500 mètres et pas de cumulonimbus.

TAF: LTAC 181040Z 1812/1912 VRB02KT CAVOK

Observations et prévisions météorologiques de plus de 4000 aéroports (messages METAR et TAF).

Les stations disponibles sont représentées par des disques jaunes et rouges sur la carte.

Passer la souris dessus pour voir le nom de la station.

Cliquer dessus pour voir les observations et prévisions météorologiques.

Pour changer de carte: cliquez sur les boutons verts avec une croix noire pour zoomer, sur le bouton vert avec un tiret pour effectuer un zoom arrière, ou sur les flèches vertes pour les cartes adjacentes.


METAR-TAF: